Terminal Aerodrome Forecast
Issued by NWS

Home | Current Version | Previous Version | Text Only | Print | Product List | Glossary On
Versions: 1 2 3 4 5 6 7 8 9 10 11 12 13 14
000
FTUS46 KMTR 171100
TAFSJC
TAF
KSJC 171139Z 1712/1812 00000KT P6SM SKC
     FM171800 VRB03KT P6SM FEW012
     FM180300 30009KT P6SM FEW010 PROB30 1806/1808 P6SM -SHRA BKN025
     FM180800 15011KT P6SM -SHRA BKN025 OVC050
     FM181100 VRB05KT P6SM -SHRA BKN025=

USA.gov is the U.S. government's official web portal to all federal, state and local government web resources and services.